sensor_id;sensor_type;location;lat;lon;timestamp;temperature;humidity
23991;DHT22;12205;50.600;4.608;2022-11-06T00:01:39;10.00;99.90
23991;DHT22;12205;50.600;4.608;2022-11-06T00:04:06;10.00;99.90
23991;DHT22;12205;50.600;4.608;2022-11-06T00:06:33;10.00;99.90
23991;DHT22;12205;50.600;4.608;2022-11-06T00:09:17;10.00;99.90
23991;DHT22;12205;50.600;4.608;2022-11-06T00:11:47;10.00;99.90
23991;DHT22;12205;50.600;4.608;2022-11-06T00:14:16;10.00;99.90
23991;DHT22;12205;50.600;4.608;2022-11-06T00:16:44;9.90;99.90
23991;DHT22;12205;50.600;4.608;2022-11-06T00:19:13;10.00;99.90
23991;DHT22;12205;50.600;4.608;2022-11-06T00:21:41;10.00;99.90
23991;DHT22;12205;50.600;4.608;2022-11-06T00:24:10;10.00;99.90
23991;DHT22;12205;50.600;4.608;2022-11-06T00:26:38;10.00;99.90
23991;DHT22;12205;50.600;4.608;2022-11-06T00:29:12;10.00;99.90
23991;DHT22;12205;50.600;4.608;2022-11-06T00:31:41;9.90;99.90
23991;DHT22;12205;50.600;4.608;2022-11-06T00:34:08;10.00;99.90
23991;DHT22;12205;50.600;4.608;2022-11-06T00:36:36;10.00;99.90
23991;DHT22;12205;50.600;4.608;2022-11-06T00:39:03;10.00;99.90
23991;DHT22;12205;50.600;4.608;2022-11-06T00:41:31;10.00;99.90
23991;DHT22;12205;50.600;4.608;2022-11-06T00:43:59;10.00;99.90
23991;DHT22;12205;50.600;4.608;2022-11-06T00:46:29;10.00;99.90
23991;DHT22;12205;50.600;4.608;2022-11-06T00:48:57;10.00;99.90
23991;DHT22;12205;50.600;4.608;2022-11-06T00:51:26;9.90;99.90
23991;DHT22;12205;50.600;4.608;2022-11-06T00:53:57;10.00;99.90
23991;DHT22;12205;50.600;4.608;2022-11-06T00:56:25;10.00;99.90
23991;DHT22;12205;50.600;4.608;2022-11-06T00:58:53;10.10;99.90
23991;DHT22;12205;50.600;4.608;2022-11-06T01:01:23;10.10;99.90
23991;DHT22;12205;50.600;4.608;2022-11-06T01:03:55;10.10;99.90
23991;DHT22;12205;50.600;4.608;2022-11-06T01:06:28;10.10;99.90
23991;DHT22;12205;50.600;4.608;2022-11-06T01:08:57;10.10;99.90
23991;DHT22;12205;50.600;4.608;2022-11-06T01:11:27;10.10;99.90
23991;DHT22;12205;50.600;4.608;2022-11-06T01:13:57;10.10;99.90
23991;DHT22;12205;50.600;4.608;2022-11-06T01:16:27;10.10;99.90
23991;DHT22;12205;50.600;4.608;2022-11-06T01:18:58;10.10;99.90
23991;DHT22;12205;50.600;4.608;2022-11-06T01:21:27;10.10;99.90
23991;DHT22;12205;50.600;4.608;2022-11-06T01:23:56;10.10;99.90
23991;DHT22;12205;50.600;4.608;2022-11-06T01:26:26;10.10;99.90
23991;DHT22;12205;50.600;4.608;2022-11-06T01:28:55;10.10;99.90
23991;DHT22;12205;50.600;4.608;2022-11-06T01:31:24;10.10;99.90
23991;DHT22;12205;50.600;4.608;2022-11-06T01:33:55;10.10;99.90
23991;DHT22;12205;50.600;4.608;2022-11-06T01:36:26;10.10;99.90
23991;DHT22;12205;50.600;4.608;2022-11-06T01:38:55;10.10;99.90
23991;DHT22;12205;50.600;4.608;2022-11-06T01:41:26;10.10;99.90
23991;DHT22;12205;50.600;4.608;2022-11-06T01:43:58;10.20;99.90
23991;DHT22;12205;50.600;4.608;2022-11-06T01:46:29;10.20;99.90
23991;DHT22;12205;50.600;4.608;2022-11-06T01:49:00;10.10;99.90
23991;DHT22;12205;50.600;4.608;2022-11-06T01:51:32;10.20;99.90
23991;DHT22;12205;50.600;4.608;2022-11-06T01:54:07;10.20;99.90
23991;DHT22;12205;50.600;4.608;2022-11-06T01:56:36;10.20;99.90
23991;DHT22;12205;50.600;4.608;2022-11-06T01:59:06;10.20;99.90
23991;DHT22;12205;50.600;4.608;2022-11-06T02:01:36;10.20;99.90
23991;DHT22;12205;50.600;4.608;2022-11-06T02:04:10;10.20;99.90
23991;DHT22;12205;50.600;4.608;2022-11-06T02:06:41;10.20;99.90
23991;DHT22;12205;50.600;4.608;2022-11-06T02:09:11;10.20;99.90
23991;DHT22;12205;50.600;4.608;2022-11-06T02:11:39;10.20;99.90
23991;DHT22;12205;50.600;4.608;2022-11-06T02:14:13;10.30;99.90
23991;DHT22;12205;50.600;4.608;2022-11-06T02:16:49;10.20;99.90
23991;DHT22;12205;50.600;4.608;2022-11-06T02:19:34;10.30;99.90
23991;DHT22;12205;50.600;4.608;2022-11-06T02:22:49;10.30;99.90
23991;DHT22;12205;50.600;4.608;2022-11-06T02:25:37;10.30;99.90
23991;DHT22;12205;50.600;4.608;2022-11-06T02:28:19;10.30;99.90
23991;DHT22;12205;50.600;4.608;2022-11-06T02:30:51;10.30;99.90
23991;DHT22;12205;50.600;4.608;2022-11-06T02:33:26;10.30;99.90
23991;DHT22;12205;50.600;4.608;2022-11-06T02:36:01;10.40;99.90
23991;DHT22;12205;50.600;4.608;2022-11-06T02:38:37;10.40;99.90
23991;DHT22;12205;50.600;4.608;2022-11-06T02:41:09;10.40;99.90
23991;DHT22;12205;50.600;4.608;2022-11-06T02:43:46;10.30;99.90
23991;DHT22;12205;50.600;4.608;2022-11-06T02:46:20;10.40;99.90
23991;DHT22;12205;50.600;4.608;2022-11-06T02:48:57;10.40;99.90
23991;DHT22;12205;50.600;4.608;2022-11-06T02:51:30;10.40;99.90
23991;DHT22;12205;50.600;4.608;2022-11-06T02:54:02;10.30;99.90
23991;DHT22;12205;50.600;4.608;2022-11-06T02:56:33;10.40;99.90
23991;DHT22;12205;50.600;4.608;2022-11-06T02:59:09;10.40;99.90
23991;DHT22;12205;50.600;4.608;2022-11-06T03:01:43;10.40;99.90
23991;DHT22;12205;50.600;4.608;2022-11-06T03:04:18;10.40;99.90
23991;DHT22;12205;50.600;4.608;2022-11-06T03:06:52;10.40;99.90
23991;DHT22;12205;50.600;4.608;2022-11-06T03:09:27;10.30;99.90
23991;DHT22;12205;50.600;4.608;2022-11-06T03:12:00;10.30;99.90
23991;DHT22;12205;50.600;4.608;2022-11-06T03:14:43;10.40;99.90
23991;DHT22;12205;50.600;4.608;2022-11-06T03:17:20;10.40;99.90
23991;DHT22;12205;50.600;4.608;2022-11-06T03:19:58;10.40;99.90
23991;DHT22;12205;50.600;4.608;2022-11-06T03:22:33;10.40;99.90
23991;DHT22;12205;50.600;4.608;2022-11-06T03:25:14;10.30;99.90
23991;DHT22;12205;50.600;4.608;2022-11-06T03:27:50;10.30;99.90
23991;DHT22;12205;50.600;4.608;2022-11-06T03:30:26;10.30;99.90
23991;DHT22;12205;50.600;4.608;2022-11-06T03:32:58;10.20;99.90
23991;DHT22;12205;50.600;4.608;2022-11-06T03:35:31;10.20;99.90
23991;DHT22;12205;50.600;4.608;2022-11-06T03:38:07;10.20;99.90
23991;DHT22;12205;50.600;4.608;2022-11-06T03:40:43;10.20;99.90
23991;DHT22;12205;50.600;4.608;2022-11-06T03:43:15;10.20;99.90
23991;DHT22;12205;50.600;4.608;2022-11-06T03:45:47;10.10;99.90
23991;DHT22;12205;50.600;4.608;2022-11-06T03:48:22;10.10;99.90
23991;DHT22;12205;50.600;4.608;2022-11-06T03:50:59;10.00;99.90
23991;DHT22;12205;50.600;4.608;2022-11-06T03:53:35;10.00;99.90
23991;DHT22;12205;50.600;4.608;2022-11-06T03:56:09;10.00;99.90
23991;DHT22;12205;50.600;4.608;2022-11-06T03:58:43;9.90;99.90
23991;DHT22;12205;50.600;4.608;2022-11-06T04:01:17;9.90;99.90
23991;DHT22;12205;50.600;4.608;2022-11-06T04:03:55;9.90;99.90
23991;DHT22;12205;50.600;4.608;2022-11-06T04:06:30;9.90;99.90
23991;DHT22;12205;50.600;4.608;2022-11-06T04:09:03;9.90;99.90
23991;DHT22;12205;50.600;4.608;2022-11-06T04:11:50;10.00;99.90
23991;DHT22;12205;50.600;4.608;2022-11-06T04:14:38;9.90;99.90
23991;DHT22;12205;50.600;4.608;2022-11-06T04:17:11;9.90;99.90
23991;DHT22;12205;50.600;4.608;2022-11-06T04:19:45;10.00;99.90
23991;DHT22;12205;50.600;4.608;2022-11-06T04:22:30;9.90;99.90
23991;DHT22;12205;50.600;4.608;2022-11-06T04:25:14;9.90;99.90
23991;DHT22;12205;50.600;4.608;2022-11-06T04:28:15;9.90;99.90
23991;DHT22;12205;50.600;4.608;2022-11-06T04:30:56;9.80;99.90
23991;DHT22;12205;50.600;4.608;2022-11-06T04:33:38;9.80;99.90
23991;DHT22;12205;50.600;4.608;2022-11-06T04:36:17;9.70;99.90
23991;DHT22;12205;50.600;4.608;2022-11-06T04:38:57;9.70;99.90
23991;DHT22;12205;50.600;4.608;2022-11-06T04:41:33;9.70;99.90
23991;DHT22;12205;50.600;4.608;2022-11-06T04:44:08;9.60;99.90
23991;DHT22;12205;50.600;4.608;2022-11-06T04:46:44;9.60;99.90
23991;DHT22;12205;50.600;4.608;2022-11-06T04:49:16;9.60;99.90
23991;DHT22;12205;50.600;4.608;2022-11-06T04:51:46;9.60;99.90
23991;DHT22;12205;50.600;4.608;2022-11-06T04:54:14;9.60;99.90
23991;DHT22;12205;50.600;4.608;2022-11-06T04:56:43;9.50;99.90
23991;DHT22;12205;50.600;4.608;2022-11-06T04:59:13;9.50;99.90
23991;DHT22;12205;50.600;4.608;2022-11-06T05:01:43;9.50;99.90
23991;DHT22;12205;50.600;4.608;2022-11-06T05:04:11;9.50;99.90
23991;DHT22;12205;50.600;4.608;2022-11-06T05:06:39;9.50;99.90
23991;DHT22;12205;50.600;4.608;2022-11-06T05:09:07;9.50;99.90
23991;DHT22;12205;50.600;4.608;2022-11-06T05:11:34;9.50;99.90
23991;DHT22;12205;50.600;4.608;2022-11-06T05:14:03;9.40;99.90
23991;DHT22;12205;50.600;4.608;2022-11-06T05:16:30;9.40;99.90
23991;DHT22;12205;50.600;4.608;2022-11-06T05:18:57;9.40;99.90
23991;DHT22;12205;50.600;4.608;2022-11-06T05:21:24;9.40;99.90
23991;DHT22;12205;50.600;4.608;2022-11-06T05:24:11;9.50;99.90
23991;DHT22;12205;50.600;4.608;2022-11-06T05:26:38;9.50;99.90
23991;DHT22;12205;50.600;4.608;2022-11-06T05:29:05;9.50;99.90
23991;DHT22;12205;50.600;4.608;2022-11-06T05:31:32;9.50;99.90
23991;DHT22;12205;50.600;4.608;2022-11-06T05:34:00;9.60;99.90
23991;DHT22;12205;50.600;4.608;2022-11-06T05:36:27;9.60;99.90
23991;DHT22;12205;50.600;4.608;2022-11-06T05:38:54;9.70;99.90
23991;DHT22;12205;50.600;4.608;2022-11-06T05:41:23;9.70;99.90
23991;DHT22;12205;50.600;4.608;2022-11-06T05:43:50;9.70;99.90
23991;DHT22;12205;50.600;4.608;2022-11-06T05:46:18;9.70;99.90
23991;DHT22;12205;50.600;4.608;2022-11-06T05:48:45;9.80;99.90
23991;DHT22;12205;50.600;4.608;2022-11-06T05:51:12;9.80;99.90
23991;DHT22;12205;50.600;4.608;2022-11-06T05:53:39;9.80;99.90
23991;DHT22;12205;50.600;4.608;2022-11-06T05:56:07;9.80;99.90
23991;DHT22;12205;50.600;4.608;2022-11-06T05:58:36;9.90;99.90
23991;DHT22;12205;50.600;4.608;2022-11-06T06:01:03;9.90;99.90
23991;DHT22;12205;50.600;4.608;2022-11-06T06:03:31;9.90;99.90
23991;DHT22;12205;50.600;4.608;2022-11-06T06:05:58;9.90;99.90
23991;DHT22;12205;50.600;4.608;2022-11-06T06:08:25;9.90;99.90
23991;DHT22;12205;50.600;4.608;2022-11-06T06:10:53;9.90;99.90
23991;DHT22;12205;50.600;4.608;2022-11-06T06:13:20;9.80;99.90
23991;DHT22;12205;50.600;4.608;2022-11-06T06:15:49;9.80;99.90
23991;DHT22;12205;50.600;4.608;2022-11-06T06:18:16;9.80;99.90
23991;DHT22;12205;50.600;4.608;2022-11-06T06:20:43;9.80;99.90
23991;DHT22;12205;50.600;4.608;2022-11-06T06:23:11;9.70;99.90
23991;DHT22;12205;50.600;4.608;2022-11-06T06:25:38;9.70;99.90
23991;DHT22;12205;50.600;4.608;2022-11-06T06:28:06;9.70;99.90
23991;DHT22;12205;50.600;4.608;2022-11-06T06:30:34;9.70;99.90
23991;DHT22;12205;50.600;4.608;2022-11-06T06:33:05;9.70;99.90
23991;DHT22;12205;50.600;4.608;2022-11-06T06:35:33;9.70;99.90
23991;DHT22;12205;50.600;4.608;2022-11-06T06:38:00;9.70;99.90
23991;DHT22;12205;50.600;4.608;2022-11-06T06:40:28;9.70;99.90
23991;DHT22;12205;50.600;4.608;2022-11-06T06:42:55;9.70;99.90
23991;DHT22;12205;50.600;4.608;2022-11-06T06:45:24;9.70;99.90
23991;DHT22;12205;50.600;4.608;2022-11-06T06:47:52;9.80;99.90
23991;DHT22;12205;50.600;4.608;2022-11-06T06:50:20;9.70;99.90
23991;DHT22;12205;50.600;4.608;2022-11-06T06:52:48;9.70;99.90
23991;DHT22;12205;50.600;4.608;2022-11-06T06:55:15;9.80;99.90
23991;DHT22;12205;50.600;4.608;2022-11-06T06:57:42;9.90;99.90
23991;DHT22;12205;50.600;4.608;2022-11-06T07:00:10;9.90;99.90
23991;DHT22;12205;50.600;4.608;2022-11-06T07:02:38;9.90;99.90
23991;DHT22;12205;50.600;4.608;2022-11-06T07:05:05;10.00;99.90
23991;DHT22;12205;50.600;4.608;2022-11-06T07:07:35;10.00;99.90
23991;DHT22;12205;50.600;4.608;2022-11-06T07:10:03;10.00;99.90
23991;DHT22;12205;50.600;4.608;2022-11-06T07:12:30;10.00;99.90
23991;DHT22;12205;50.600;4.608;2022-11-06T07:14:58;10.00;99.90
23991;DHT22;12205;50.600;4.608;2022-11-06T07:17:26;10.10;99.90
23991;DHT22;12205;50.600;4.608;2022-11-06T07:19:53;10.10;99.90
23991;DHT22;12205;50.600;4.608;2022-11-06T07:22:20;10.10;99.90
23991;DHT22;12205;50.600;4.608;2022-11-06T07:24:49;10.20;99.90
23991;DHT22;12205;50.600;4.608;2022-11-06T07:27:16;10.20;99.90
23991;DHT22;12205;50.600;4.608;2022-11-06T07:29:44;10.20;99.90
23991;DHT22;12205;50.600;4.608;2022-11-06T07:32:11;10.20;99.90
23991;DHT22;12205;50.600;4.608;2022-11-06T07:34:38;10.30;99.90
23991;DHT22;12205;50.600;4.608;2022-11-06T07:37:06;10.30;99.90
23991;DHT22;12205;50.600;4.608;2022-11-06T07:39:34;10.30;99.90
23991;DHT22;12205;50.600;4.608;2022-11-06T07:42:03;10.30;99.90
23991;DHT22;12205;50.600;4.608;2022-11-06T07:44:35;10.40;99.90
23991;DHT22;12205;50.600;4.608;2022-11-06T07:47:02;10.50;99.90
23991;DHT22;12205;50.600;4.608;2022-11-06T07:49:29;10.50;99.90
23991;DHT22;12205;50.600;4.608;2022-11-06T07:51:56;10.50;99.90
23991;DHT22;12205;50.600;4.608;2022-11-06T07:54:24;10.60;99.90
23991;DHT22;12205;50.600;4.608;2022-11-06T07:56:51;10.70;99.90
23991;DHT22;12205;50.600;4.608;2022-11-06T07:59:19;10.70;99.90
23991;DHT22;12205;50.600;4.608;2022-11-06T08:01:47;10.70;99.90
23991;DHT22;12205;50.600;4.608;2022-11-06T08:04:14;10.70;99.90
23991;DHT22;12205;50.600;4.608;2022-11-06T08:06:42;10.80;99.90
23991;DHT22;12205;50.600;4.608;2022-11-06T08:09:09;10.70;99.90
23991;DHT22;12205;50.600;4.608;2022-11-06T08:11:36;10.70;99.90
23991;DHT22;12205;50.600;4.608;2022-11-06T08:14:03;10.70;99.90
23991;DHT22;12205;50.600;4.608;2022-11-06T08:16:32;10.70;99.90
23991;DHT22;12205;50.600;4.608;2022-11-06T08:18:59;10.70;99.90
23991;DHT22;12205;50.600;4.608;2022-11-06T08:21:26;10.80;99.90
23991;DHT22;12205;50.600;4.608;2022-11-06T08:23:53;10.80;99.90
23991;DHT22;12205;50.600;4.608;2022-11-06T08:26:21;10.80;99.90
23991;DHT22;12205;50.600;4.608;2022-11-06T08:28:48;10.70;99.90
23991;DHT22;12205;50.600;4.608;2022-11-06T08:31:15;10.70;99.90
23991;DHT22;12205;50.600;4.608;2022-11-06T08:33:44;10.70;99.90
23991;DHT22;12205;50.600;4.608;2022-11-06T08:36:11;10.80;99.90
23991;DHT22;12205;50.600;4.608;2022-11-06T08:38:39;10.80;99.90
23991;DHT22;12205;50.600;4.608;2022-11-06T08:41:07;10.80;99.90
23991;DHT22;12205;50.600;4.608;2022-11-06T08:43:37;10.90;99.90
23991;DHT22;12205;50.600;4.608;2022-11-06T08:46:07;10.90;99.90
23991;DHT22;12205;50.600;4.608;2022-11-06T08:48:35;10.90;99.90
23991;DHT22;12205;50.600;4.608;2022-11-06T08:51:05;10.90;99.90
23991;DHT22;12205;50.600;4.608;2022-11-06T08:53:33;10.80;99.90
23991;DHT22;12205;50.600;4.608;2022-11-06T08:56:01;10.90;99.90
23991;DHT22;12205;50.600;4.608;2022-11-06T08:58:29;10.90;99.90
23991;DHT22;12205;50.600;4.608;2022-11-06T09:00:57;10.90;99.90
23991;DHT22;12205;50.600;4.608;2022-11-06T09:03:24;10.90;99.90
23991;DHT22;12205;50.600;4.608;2022-11-06T09:05:51;11.00;99.90
23991;DHT22;12205;50.600;4.608;2022-11-06T09:08:20;11.00;99.90
23991;DHT22;12205;50.600;4.608;2022-11-06T09:10:49;11.00;99.90
23991;DHT22;12205;50.600;4.608;2022-11-06T09:13:16;11.00;99.90
23991;DHT22;12205;50.600;4.608;2022-11-06T09:15:44;11.10;99.90
23991;DHT22;12205;50.600;4.608;2022-11-06T09:18:11;11.00;99.90
23991;DHT22;12205;50.600;4.608;2022-11-06T09:20:38;11.10;99.90
23991;DHT22;12205;50.600;4.608;2022-11-06T09:23:07;11.10;99.90
23991;DHT22;12205;50.600;4.608;2022-11-06T09:25:37;11.10;99.90
23991;DHT22;12205;50.600;4.608;2022-11-06T09:28:04;11.10;99.90
23991;DHT22;12205;50.600;4.608;2022-11-06T09:30:31;11.20;99.90
23991;DHT22;12205;50.600;4.608;2022-11-06T09:33:00;11.30;99.90
23991;DHT22;12205;50.600;4.608;2022-11-06T09:35:30;11.30;99.90
23991;DHT22;12205;50.600;4.608;2022-11-06T09:38:02;11.40;99.90
23991;DHT22;12205;50.600;4.608;2022-11-06T09:40:33;11.50;99.90
23991;DHT22;12205;50.600;4.608;2022-11-06T09:43:10;11.70;99.90
23991;DHT22;12205;50.600;4.608;2022-11-06T09:45:49;11.70;99.90
23991;DHT22;12205;50.600;4.608;2022-11-06T09:48:22;11.90;99.90
23991;DHT22;12205;50.600;4.608;2022-11-06T09:50:57;11.90;99.90
23991;DHT22;12205;50.600;4.608;2022-11-06T09:53:33;12.10;99.90
23991;DHT22;12205;50.600;4.608;2022-11-06T09:56:05;12.10;99.90
23991;DHT22;12205;50.600;4.608;2022-11-06T09:58:40;12.20;99.90
23991;DHT22;12205;50.600;4.608;2022-11-06T10:01:13;12.10;99.90
23991;DHT22;12205;50.600;4.608;2022-11-06T10:03:48;12.10;99.90
23991;DHT22;12205;50.600;4.608;2022-11-06T10:06:23;12.00;99.90
23991;DHT22;12205;50.600;4.608;2022-11-06T10:08:53;12.00;99.90
23991;DHT22;12205;50.600;4.608;2022-11-06T10:11:34;12.00;99.90
23991;DHT22;12205;50.600;4.608;2022-11-06T10:14:26;12.00;99.90
23991;DHT22;12205;50.600;4.608;2022-11-06T10:17:12;12.00;99.90
23991;DHT22;12205;50.600;4.608;2022-11-06T10:19:50;12.00;99.90
23991;DHT22;12205;50.600;4.608;2022-11-06T10:22:24;12.10;99.90
23991;DHT22;12205;50.600;4.608;2022-11-06T10:25:02;12.00;99.90
23991;DHT22;12205;50.600;4.608;2022-11-06T10:27:40;12.00;99.90
23991;DHT22;12205;50.600;4.608;2022-11-06T10:30:13;12.10;99.90
23991;DHT22;12205;50.600;4.608;2022-11-06T10:33:08;12.20;99.90
23991;DHT22;12205;50.600;4.608;2022-11-06T10:35:45;12.30;99.90
23991;DHT22;12205;50.600;4.608;2022-11-06T10:38:22;12.50;99.90
23991;DHT22;12205;50.600;4.608;2022-11-06T10:40:53;12.50;99.90
23991;DHT22;12205;50.600;4.608;2022-11-06T10:43:25;12.50;99.90
23991;DHT22;12205;50.600;4.608;2022-11-06T10:46:05;12.40;99.90
23991;DHT22;12205;50.600;4.608;2022-11-06T10:48:42;12.30;99.90
23991;DHT22;12205;50.600;4.608;2022-11-06T10:51:24;12.30;99.90
23991;DHT22;12205;50.600;4.608;2022-11-06T10:54:10;12.40;99.90
23991;DHT22;12205;50.600;4.608;2022-11-06T10:56:59;12.40;99.90
23991;DHT22;12205;50.600;4.608;2022-11-06T10:59:39;12.40;99.90
23991;DHT22;12205;50.600;4.608;2022-11-06T11:02:23;12.50;99.90
23991;DHT22;12205;50.600;4.608;2022-11-06T11:04:53;12.50;99.90
23991;DHT22;12205;50.600;4.608;2022-11-06T11:07:21;12.50;99.90
23991;DHT22;12205;50.600;4.608;2022-11-06T11:09:48;12.50;99.90
23991;DHT22;12205;50.600;4.608;2022-11-06T11:12:22;12.40;99.90
23991;DHT22;12205;50.600;4.608;2022-11-06T11:15:19;12.40;99.90
23991;DHT22;12205;50.600;4.608;2022-11-06T11:18:11;12.30;99.90
23991;DHT22;12205;50.600;4.608;2022-11-06T11:20:44;12.10;99.90
23991;DHT22;12205;50.600;4.608;2022-11-06T11:23:15;12.10;99.90
23991;DHT22;12205;50.600;4.608;2022-11-06T11:25:45;12.00;99.90
23991;DHT22;12205;50.600;4.608;2022-11-06T11:28:24;12.00;99.90
23991;DHT22;12205;50.600;4.608;2022-11-06T11:30:58;11.90;99.90
23991;DHT22;12205;50.600;4.608;2022-11-06T11:33:33;11.80;99.90
23991;DHT22;12205;50.600;4.608;2022-11-06T11:36:03;11.80;99.90
23991;DHT22;12205;50.600;4.608;2022-11-06T11:38:34;11.70;99.90
23991;DHT22;12205;50.600;4.608;2022-11-06T11:41:07;11.70;99.90
23991;DHT22;12205;50.600;4.608;2022-11-06T11:43:38;11.70;99.90
23991;DHT22;12205;50.600;4.608;2022-11-06T11:46:17;11.70;99.90
23991;DHT22;12205;50.600;4.608;2022-11-06T11:48:48;11.70;99.90
23991;DHT22;12205;50.600;4.608;2022-11-06T11:54:14;11.60;99.90
23991;DHT22;12205;50.600;4.608;2022-11-06T11:56:48;11.70;99.90
23991;DHT22;12205;50.600;4.608;2022-11-06T11:59:17;11.50;99.90
23991;DHT22;12205;50.600;4.608;2022-11-06T12:01:47;11.40;99.90
23991;DHT22;12205;50.600;4.608;2022-11-06T12:04:20;11.40;99.90
23991;DHT22;12205;50.600;4.608;2022-11-06T12:06:57;11.30;99.90
23991;DHT22;12205;50.600;4.608;2022-11-06T12:09:28;11.20;99.90
23991;DHT22;12205;50.600;4.608;2022-11-06T12:11:59;11.30;99.90
23991;DHT22;12205;50.600;4.608;2022-11-06T12:14:31;11.20;99.90
23991;DHT22;12205;50.600;4.608;2022-11-06T12:17:14;11.10;99.90
23991;DHT22;12205;50.600;4.608;2022-11-06T12:19:49;11.10;99.90
23991;DHT22;12205;50.600;4.608;2022-11-06T12:22:24;11.00;99.90
23991;DHT22;12205;50.600;4.608;2022-11-06T12:24:57;10.90;99.90
23991;DHT22;12205;50.600;4.608;2022-11-06T12:27:32;10.90;99.90
23991;DHT22;12205;50.600;4.608;2022-11-06T12:30:09;10.90;99.90
23991;DHT22;12205;50.600;4.608;2022-11-06T12:32:56;10.80;99.90
23991;DHT22;12205;50.600;4.608;2022-11-06T12:35:31;10.70;99.90
23991;DHT22;12205;50.600;4.608;2022-11-06T12:38:06;10.70;99.90
23991;DHT22;12205;50.600;4.608;2022-11-06T12:40:40;10.70;99.90
23991;DHT22;12205;50.600;4.608;2022-11-06T12:43:19;10.70;99.90
23991;DHT22;12205;50.600;4.608;2022-11-06T12:46:28;10.70;99.90
23991;DHT22;12205;50.600;4.608;2022-11-06T12:49:23;10.70;99.90
23991;DHT22;12205;50.600;4.608;2022-11-06T12:52:26;10.70;99.90
23991;DHT22;12205;50.600;4.608;2022-11-06T12:55:14;10.70;99.90
23991;DHT22;12205;50.600;4.608;2022-11-06T12:58:04;10.70;99.90
23991;DHT22;12205;50.600;4.608;2022-11-06T13:00:53;10.70;99.90
23991;DHT22;12205;50.600;4.608;2022-11-06T13:03:51;10.70;99.90
23991;DHT22;12205;50.600;4.608;2022-11-06T13:06:48;10.70;99.90
23991;DHT22;12205;50.600;4.608;2022-11-06T13:09:50;10.60;99.90
23991;DHT22;12205;50.600;4.608;2022-11-06T13:12:32;10.70;99.90
23991;DHT22;12205;50.600;4.608;2022-11-06T13:15:14;10.60;99.90
23991;DHT22;12205;50.600;4.608;2022-11-06T13:17:54;10.70;99.90
23991;DHT22;12205;50.600;4.608;2022-11-06T13:20:30;10.50;99.90
23991;DHT22;12205;50.600;4.608;2022-11-06T13:23:10;10.60;99.90
23991;DHT22;12205;50.600;4.608;2022-11-06T13:25:47;10.70;99.90
23991;DHT22;12205;50.600;4.608;2022-11-06T13:28:27;10.60;99.90
23991;DHT22;12205;50.600;4.608;2022-11-06T13:30:56;10.60;99.90
23991;DHT22;12205;50.600;4.608;2022-11-06T13:33:27;10.50;99.90
23991;DHT22;12205;50.600;4.608;2022-11-06T13:35:58;10.50;99.90
23991;DHT22;12205;50.600;4.608;2022-11-06T13:38:28;10.50;99.90
23991;DHT22;12205;50.600;4.608;2022-11-06T13:41:05;10.40;99.90
23991;DHT22;12205;50.600;4.608;2022-11-06T13:43:40;10.40;99.90
23991;DHT22;12205;50.600;4.608;2022-11-06T13:46:19;10.30;99.90
23991;DHT22;12205;50.600;4.608;2022-11-06T13:49:00;10.20;99.90
23991;DHT22;12205;50.600;4.608;2022-11-06T13:51:40;10.10;99.90
23991;DHT22;12205;50.600;4.608;2022-11-06T13:54:20;10.10;99.90
23991;DHT22;12205;50.600;4.608;2022-11-06T13:57:14;10.00;99.90
23991;DHT22;12205;50.600;4.608;2022-11-06T14:00:19;9.90;99.90
23991;DHT22;12205;50.600;4.608;2022-11-06T14:03:12;9.80;99.90
23991;DHT22;12205;50.600;4.608;2022-11-06T14:05:56;9.70;99.90
23991;DHT22;12205;50.600;4.608;2022-11-06T14:08:30;9.70;99.90
23991;DHT22;12205;50.600;4.608;2022-11-06T14:11:03;9.60;99.90
23991;DHT22;12205;50.600;4.608;2022-11-06T14:13:34;9.50;99.90
23991;DHT22;12205;50.600;4.608;2022-11-06T14:16:24;9.50;99.90
23991;DHT22;12205;50.600;4.608;2022-11-06T14:18:56;9.50;99.90
23991;DHT22;12205;50.600;4.608;2022-11-06T14:21:45;9.50;99.90
23991;DHT22;12205;50.600;4.608;2022-11-06T14:27:08;9.20;99.90
23991;DHT22;12205;50.600;4.608;2022-11-06T14:29:58;9.20;99.90
23991;DHT22;12205;50.600;4.608;2022-11-06T14:32:44;9.10;99.90
23991;DHT22;12205;50.600;4.608;2022-11-06T14:38:30;9.10;99.90
23991;DHT22;12205;50.600;4.608;2022-11-06T14:44:37;9.00;99.90
23991;DHT22;12205;50.600;4.608;2022-11-06T14:47:30;8.90;99.90
23991;DHT22;12205;50.600;4.608;2022-11-06T14:50:05;8.90;99.90
23991;DHT22;12205;50.600;4.608;2022-11-06T14:52:43;8.80;99.90
23991;DHT22;12205;50.600;4.608;2022-11-06T14:55:29;8.70;99.90
23991;DHT22;12205;50.600;4.608;2022-11-06T14:58:10;8.70;99.90
23991;DHT22;12205;50.600;4.608;2022-11-06T15:00:48;8.70;99.90
23991;DHT22;12205;50.600;4.608;2022-11-06T15:03:33;8.60;99.90
23991;DHT22;12205;50.600;4.608;2022-11-06T15:09:11;8.50;99.90
23991;DHT22;12205;50.600;4.608;2022-11-06T15:11:59;8.50;99.90
23991;DHT22;12205;50.600;4.608;2022-11-06T15:14:52;8.40;99.90
23991;DHT22;12205;50.600;4.608;2022-11-06T15:17:31;8.40;99.90
23991;DHT22;12205;50.600;4.608;2022-11-06T15:20:16;8.30;99.90
23991;DHT22;12205;50.600;4.608;2022-11-06T15:23:03;8.30;99.90
23991;DHT22;12205;50.600;4.608;2022-11-06T15:25:45;8.30;99.90
23991;DHT22;12205;50.600;4.608;2022-11-06T15:28:20;8.30;99.90
23991;DHT22;12205;50.600;4.608;2022-11-06T15:30:51;8.30;99.90
23991;DHT22;12205;50.600;4.608;2022-11-06T15:33:29;8.30;99.90
23991;DHT22;12205;50.600;4.608;2022-11-06T15:36:04;8.30;99.90
23991;DHT22;12205;50.600;4.608;2022-11-06T15:38:37;8.20;99.90
23991;DHT22;12205;50.600;4.608;2022-11-06T15:41:07;8.20;99.90
23991;DHT22;12205;50.600;4.608;2022-11-06T15:43:43;8.30;99.90
23991;DHT22;12205;50.600;4.608;2022-11-06T15:46:22;8.20;99.90
23991;DHT22;12205;50.600;4.608;2022-11-06T15:49:15;8.20;99.90
23991;DHT22;12205;50.600;4.608;2022-11-06T15:51:54;8.30;99.90
23991;DHT22;12205;50.600;4.608;2022-11-06T15:54:31;8.30;99.90
23991;DHT22;12205;50.600;4.608;2022-11-06T15:57:02;8.30;99.90
23991;DHT22;12205;50.600;4.608;2022-11-06T15:59:37;8.30;99.90
23991;DHT22;12205;50.600;4.608;2022-11-06T16:02:12;8.40;99.90
23991;DHT22;12205;50.600;4.608;2022-11-06T16:04:42;8.30;99.90
23991;DHT22;12205;50.600;4.608;2022-11-06T16:07:20;8.30;99.90
23991;DHT22;12205;50.600;4.608;2022-11-06T16:09:48;8.30;99.90
23991;DHT22;12205;50.600;4.608;2022-11-06T16:12:17;8.30;99.90
23991;DHT22;12205;50.600;4.608;2022-11-06T16:14:45;8.30;99.90
23991;DHT22;12205;50.600;4.608;2022-11-06T16:17:16;8.20;99.90
23991;DHT22;12205;50.600;4.608;2022-11-06T16:19:49;8.30;99.90
23991;DHT22;12205;50.600;4.608;2022-11-06T16:22:27;8.20;99.90
23991;DHT22;12205;50.600;4.608;2022-11-06T16:24:58;8.20;99.90
23991;DHT22;12205;50.600;4.608;2022-11-06T16:27:32;8.30;99.90
23991;DHT22;12205;50.600;4.608;2022-11-06T16:30:01;8.30;99.90
23991;DHT22;12205;50.600;4.608;2022-11-06T16:32:32;8.20;99.90